createdAt,value
2019-03-06T00:00:46.988Z,100488.24
2019-03-06T00:03:20.291Z,100488.47
2019-03-06T00:05:53.519Z,100479.01
2019-03-06T00:08:35.278Z,100468.21
2019-03-06T00:11:21.266Z,100471.37
2019-03-06T00:13:58.426Z,100463.74
2019-03-06T00:17:08.635Z,100466.97
2019-03-06T00:19:53.035Z,100457.39
2019-03-06T00:22:25.873Z,100456.16
2019-03-06T00:24:59.934Z,100443.58
2019-03-06T00:27:32.187Z,100448.91
2019-03-06T00:30:12.669Z,100446.58
2019-03-06T00:35:47.607Z,100443.52
2019-03-06T00:38:23.951Z,100436.70
2019-03-06T00:41:28.275Z,100439.16
2019-03-06T00:44:06.425Z,100432.46
2019-03-06T00:46:38.143Z,100423.98
2019-03-06T00:49:12.087Z,100427.13
2019-03-06T00:51:42.760Z,100431.74
2019-03-06T00:54:48.689Z,100428.98
2019-03-06T00:57:26.941Z,100423.63
2019-03-06T01:00:21.349Z,100415.46
2019-03-06T01:02:53.959Z,100412.20
2019-03-06T01:05:34.873Z,100417.05
2019-03-06T01:08:05.140Z,100406.48
2019-03-06T01:10:38.864Z,100407.63
2019-03-06T01:13:23.234Z,100406.83
2019-03-06T01:15:57.279Z,100411.28
2019-03-06T01:18:30.886Z,100409.19
2019-03-06T01:21:06.240Z,100403.62
2019-03-06T01:23:42.803Z,100407.44
2019-03-06T01:26:16.482Z,100403.80
2019-03-06T01:28:53.616Z,100397.50
2019-03-06T01:31:25.623Z,100404.91
2019-03-06T01:34:16.774Z,100396.60
2019-03-06T01:37:03.644Z,100395.60
2019-03-06T01:39:53.161Z,100386.73
2019-03-06T01:43:07.777Z,100397.27
2019-03-06T01:45:45.863Z,100384.32
2019-03-06T01:48:21.853Z,100385.36
2019-03-06T01:50:56.323Z,100383.45
2019-03-06T01:53:47.553Z,100379.05
2019-03-06T01:56:19.166Z,100379.28
2019-03-06T01:58:51.690Z,100379.81
2019-03-06T02:01:24.313Z,100372.56
2019-03-06T02:03:56.185Z,100366.37
2019-03-06T02:06:29.573Z,100372.04
2019-03-06T02:09:07.363Z,100364.62
2019-03-06T02:11:45.521Z,100355.20
2019-03-06T02:14:19.610Z,100342.92
2019-03-06T02:16:52.372Z,100348.72
2019-03-06T02:19:26.733Z,100337.31
2019-03-06T02:22:06.236Z,100338.13
2019-03-06T02:24:59.090Z,100338.67
2019-03-06T02:27:31.020Z,100330.41
2019-03-06T02:30:02.580Z,100325.09
2019-03-06T02:32:33.095Z,100317.52
2019-03-06T02:35:06.708Z,100309.38
2019-03-06T02:37:41.063Z,100302.17
2019-03-06T02:40:13.039Z,100304.13
2019-03-06T02:42:46.984Z,100306.11
2019-03-06T02:45:21.242Z,100304.89
2019-03-06T02:47:52.138Z,100312.30
2019-03-06T02:50:25.151Z,100317.59
2019-03-06T02:53:01.329Z,100316.23
2019-03-06T02:55:34.736Z,100305.00
2019-03-06T02:58:18.437Z,100306.92
2019-03-06T03:01:22.702Z,100293.73
2019-03-06T03:04:04.788Z,100280.47
2019-03-06T03:06:59.034Z,100279.28
2019-03-06T03:09:32.724Z,100272.24
2019-03-06T03:12:07.430Z,100267.84
2019-03-06T03:14:45.511Z,100256.13
2019-03-06T03:20:14.237Z,100253.73
2019-03-06T03:22:48.269Z,100252.42
2019-03-06T03:25:22.493Z,100250.91
2019-03-06T03:28:03.472Z,100242.06
2019-03-06T03:30:37.370Z,100245.44
2019-03-06T03:33:13.449Z,100253.44
2019-03-06T03:35:51.730Z,100243.83
2019-03-06T03:38:49.266Z,100243.52
2019-03-06T03:41:21.779Z,100236.80
2019-03-06T03:43:56.676Z,100241.38
2019-03-06T03:46:33.703Z,100228.17
2019-03-06T03:49:08.409Z,100223.27
2019-03-06T03:51:45.964Z,100205.34
2019-03-06T03:54:21.080Z,100201.45
2019-03-06T03:56:54.216Z,100198.77
2019-03-06T03:59:39.382Z,100199.03
2019-03-06T04:02:14.015Z,100202.95
2019-03-06T04:04:49.421Z,100211.06
2019-03-06T04:07:23.445Z,100204.27
2019-03-06T04:09:55.745Z,100193.97
2019-03-06T04:12:26.310Z,100187.88
2019-03-06T04:14:58.532Z,100177.09
2019-03-06T04:17:30.719Z,100186.19
2019-03-06T04:20:08.228Z,100194.75
2019-03-06T04:22:41.278Z,100190.78
2019-03-06T04:25:15.333Z,100186.17
2019-03-06T04:27:48.482Z,100181.48
2019-03-06T04:30:24.602Z,100181.83
2019-03-06T04:32:57.638Z,100181.45
2019-03-06T04:35:31.073Z,100193.55
2019-03-06T04:38:02.487Z,100186.59
2019-03-06T04:40:36.326Z,100191.29
2019-03-06T04:43:12.701Z,100190.56
2019-03-06T04:45:44.055Z,100173.45
2019-03-06T04:48:18.807Z,100176.98
2019-03-06T04:50:52.928Z,100164.31
2019-03-06T04:53:28.205Z,100172.19
2019-03-06T04:56:01.234Z,100161.48
2019-03-06T04:58:36.124Z,100152.45
2019-03-06T05:01:08.844Z,100152.81
2019-03-06T05:03:40.686Z,100153.34
2019-03-06T05:06:18.086Z,100145.38
2019-03-06T05:08:49.244Z,100141.27
2019-03-06T05:11:31.940Z,100135.59
2019-03-06T05:14:28.070Z,100145.02
2019-03-06T05:17:22.828Z,100135.03
2019-03-06T05:19:59.649Z,100130.19
2019-03-06T05:22:30.506Z,100123.06
2019-03-06T05:25:06.644Z,100122.63
2019-03-06T05:27:42.448Z,100121.01
2019-03-06T05:30:16.338Z,100112.39
2019-03-06T05:32:50.563Z,100097.95
2019-03-06T05:35:36.179Z,100099.47
2019-03-06T05:38:14.348Z,100084.14
2019-03-06T05:40:45.374Z,100083.38
2019-03-06T05:43:21.854Z,100082.62
2019-03-06T05:46:05.614Z,100083.01
2019-03-06T05:48:39.526Z,100078.39
2019-03-06T05:51:14.582Z,100072.73
2019-03-06T05:53:46.193Z,100061.86
2019-03-06T05:56:18.868Z,100060.87
2019-03-06T05:58:51.505Z,100052.47
2019-03-06T06:01:25.003Z,100056.94
2019-03-06T06:03:56.746Z,100056.87
2019-03-06T06:06:32.304Z,100044.45
2019-03-06T06:09:08.802Z,100037.78
2019-03-06T06:11:41.772Z,100037.30
2019-03-06T06:14:15.760Z,100037.14
2019-03-06T06:16:50.281Z,100040.58
2019-03-06T06:19:26.141Z,100032.64
2019-03-06T06:22:17.971Z,100031.33
2019-03-06T06:24:55.166Z,100032.05
2019-03-06T06:27:28.535Z,100033.27
2019-03-06T06:30:02.944Z,100024.02
2019-03-06T06:32:37.286Z,100022.33
2019-03-06T06:35:41.827Z,100014.44
2019-03-06T06:38:24.103Z,100019.34
2019-03-06T06:40:56.504Z,100011.20
2019-03-06T06:43:28.636Z,100016.46
2019-03-06T06:46:02.684Z,100001.91
2019-03-06T06:48:33.791Z,100001.64
2019-03-06T06:51:56.636Z,99996.84
2019-03-06T06:54:51.337Z,99993.77
2019-03-06T06:57:59.309Z,99995.45
2019-03-06T07:01:11.550Z,99987.47
2019-03-06T07:04:19.395Z,99979.84
2019-03-06T07:07:14.544Z,99977.06
2019-03-06T07:10:08.906Z,99969.72
2019-03-06T07:12:57.409Z,99964.52
2019-03-06T07:15:56.041Z,99954.59
2019-03-06T07:18:40.840Z,99946.05
2019-03-06T07:21:19.842Z,99940.10
2019-03-06T07:24:06.621Z,99945.01
2019-03-06T07:26:57.276Z,99942.14
2019-03-06T07:29:53.884Z,99941.34
2019-03-06T07:32:45.375Z,99934.27
2019-03-06T07:36:07.685Z,99937.45
2019-03-06T07:38:40.637Z,99932.39
2019-03-06T07:41:31.552Z,99934.07
2019-03-06T07:44:29.772Z,99934.67
2019-03-06T07:47:22.014Z,99939.67
2019-03-06T07:50:15.028Z,99924.63
2019-03-06T07:53:42.877Z,99922.82
2019-03-06T07:56:30.169Z,99922.66
2019-03-06T07:59:03.030Z,99916.30
2019-03-06T08:01:38.067Z,99902.36
2019-03-06T08:04:29.733Z,99905.57
2019-03-06T08:07:16.137Z,99904.20
2019-03-06T08:09:51.474Z,99913.00
2019-03-06T08:12:47.336Z,99897.09
2019-03-06T08:15:58.281Z,99895.64
2019-03-06T08:18:39.975Z,99889.94
2019-03-06T08:21:30.243Z,99890.83
2019-03-06T08:24:25.458Z,99899.78
2019-03-06T08:27:08.615Z,99875.90
2019-03-06T08:29:44.529Z,99872.80
2019-03-06T08:32:37.301Z,99877.59
2019-03-06T08:35:11.070Z,99873.40
2019-03-06T08:37:43.816Z,99867.75
2019-03-06T08:40:27.831Z,99867.78
2019-03-06T08:43:01.093Z,99868.55
2019-03-06T08:45:46.269Z,99868.85
2019-03-06T08:48:34.935Z,99870.11
2019-03-06T08:54:23.065Z,99870.98
2019-03-06T08:57:17.502Z,99869.11
2019-03-06T09:00:06.099Z,99868.12
2019-03-06T09:02:59.158Z,99854.09
2019-03-06T09:05:51.070Z,99853.38
2019-03-06T09:08:40.435Z,99834.45
2019-03-06T09:11:23.081Z,99834.33
2019-03-06T09:14:17.308Z,99822.00
2019-03-06T09:17:30.361Z,99816.58
2019-03-06T09:23:43.374Z,99798.00
2019-03-06T09:26:42.463Z,99804.75
2019-03-06T09:29:36.449Z,99792.89
2019-03-06T09:32:22.461Z,99786.63
2019-03-06T09:40:18.531Z,99774.66
2019-03-06T09:43:07.806Z,99765.13
2019-03-06T09:46:45.841Z,99773.27
2019-03-06T09:49:32.950Z,99757.12
2019-03-06T10:28:11.873Z,99718.44
2019-03-06T10:30:47.242Z,99712.02
2019-03-06T10:33:31.327Z,99715.44
2019-03-06T10:36:04.704Z,99728.86
2019-03-06T10:38:41.724Z,99733.20
2019-03-06T10:41:13.492Z,99732.69
2019-03-06T10:43:49.684Z,99717.77
2019-03-06T10:46:23.305Z,99729.13
2019-03-06T10:48:56.135Z,99727.00
2019-03-06T10:51:30.973Z,99726.44
2019-03-06T10:54:06.372Z,99723.67
2019-03-06T10:56:40.088Z,99698.78
2019-03-06T10:59:11.401Z,99700.98
2019-03-06T11:01:45.793Z,99706.63
2019-03-06T11:04:33.381Z,99703.98
2019-03-06T11:07:04.838Z,99702.88
2019-03-06T11:09:41.013Z,99705.56
2019-03-06T11:12:27.027Z,99708.66
2019-03-06T11:15:02.302Z,99697.64
2019-03-06T11:17:37.021Z,99689.47
2019-03-06T11:20:21.633Z,99693.22
2019-03-06T11:22:54.883Z,99690.53
2019-03-06T11:25:31.826Z,99693.45
2019-03-06T11:28:05.839Z,99691.83
2019-03-06T11:30:54.257Z,99679.70
2019-03-06T11:33:31.050Z,99684.15
2019-03-06T11:36:02.200Z,99668.72
2019-03-06T11:38:37.305Z,99662.72
2019-03-06T11:41:11.306Z,99648.34
2019-03-06T11:43:46.713Z,99644.61
2019-03-06T11:46:22.139Z,99636.42
2019-03-06T11:48:54.571Z,99628.55
2019-03-06T11:51:25.852Z,99616.45
2019-03-06T11:54:03.970Z,99600.44
2019-03-06T11:56:38.755Z,99595.52
2019-03-06T11:59:13.814Z,99597.44
2019-03-06T12:01:49.047Z,99588.41
2019-03-06T12:04:22.753Z,99596.23
2019-03-06T12:07:22.594Z,99588.45
2019-03-06T12:09:55.666Z,99573.84
2019-03-06T12:12:30.627Z,99566.17
2019-03-06T12:15:07.300Z,99564.86
2019-03-06T12:17:45.295Z,99556.58
2019-03-06T12:20:20.635Z,99545.93
2019-03-06T12:22:52.745Z,99553.17
2019-03-06T12:25:25.880Z,99549.83
2019-03-06T12:28:01.061Z,99547.73
2019-03-06T12:30:33.013Z,99532.91
2019-03-06T12:33:08.431Z,99527.28
2019-03-06T12:35:41.964Z,99516.59
2019-03-06T12:38:15.861Z,99511.38
2019-03-06T12:40:46.499Z,99500.52
2019-03-06T12:43:18.869Z,99508.23
2019-03-06T12:46:23.000Z,99504.30
2019-03-06T12:48:53.647Z,99500.33
2019-03-06T12:51:29.781Z,99498.91
2019-03-06T12:54:03.522Z,99496.33
2019-03-06T12:56:40.756Z,99494.62
2019-03-06T12:59:11.542Z,99489.69
2019-03-06T13:01:43.725Z,99487.41
2019-03-06T13:04:14.232Z,99482.92
2019-03-06T13:06:55.173Z,99469.86
2019-03-06T13:09:34.079Z,99467.50
2019-03-06T13:12:16.603Z,99475.68
2019-03-06T13:14:51.431Z,99464.02
2019-03-06T13:17:29.036Z,99457.73
2019-03-06T13:20:01.510Z,99451.08
2019-03-06T13:22:34.968Z,99443.47
2019-03-06T13:25:06.267Z,99438.84
2019-03-06T13:27:40.149Z,99436.59
2019-03-06T13:30:12.632Z,99434.91
2019-03-06T13:33:00.754Z,99442.98
2019-03-06T13:35:35.844Z,99445.41
2019-03-06T13:38:16.049Z,99438.05
2019-03-06T13:40:50.179Z,99424.81
2019-03-06T13:43:24.831Z,99430.16
2019-03-06T13:45:58.362Z,99438.92
2019-03-06T13:48:50.725Z,99423.31
2019-03-06T13:51:22.794Z,99432.45
2019-03-06T13:53:56.709Z,99426.55
2019-03-06T13:56:29.425Z,99427.63
2019-03-06T13:59:03.205Z,99408.02
2019-03-06T14:01:33.950Z,99410.09
2019-03-06T14:04:07.223Z,99417.70
2019-03-06T14:06:44.457Z,99407.36
2019-03-06T14:09:21.295Z,99397.33
2019-03-06T14:11:51.884Z,99405.29
2019-03-06T14:14:23.258Z,99413.25
2019-03-06T14:16:56.157Z,99431.63
2019-03-06T14:19:29.538Z,99428.08
2019-03-06T14:22:13.015Z,99427.81
2019-03-06T14:24:52.600Z,99426.53
2019-03-06T14:27:28.582Z,99429.80
2019-03-06T14:30:02.467Z,99432.97
2019-03-06T14:32:34.940Z,99426.49
2019-03-06T14:35:08.403Z,99425.49
2019-03-06T14:37:40.900Z,99421.78
2019-03-06T14:40:28.830Z,99418.82
2019-03-06T14:43:01.676Z,99418.09
2019-03-06T14:45:32.683Z,99411.52
2019-03-06T14:48:09.368Z,99405.74
2019-03-06T14:50:40.988Z,99410.00
2019-03-06T14:53:17.833Z,99408.47
2019-03-06T14:55:53.586Z,99398.06
2019-03-06T14:58:49.169Z,99394.88
2019-03-06T15:01:43.968Z,99387.05
2019-03-06T15:04:18.437Z,99386.77
2019-03-06T15:06:54.679Z,99374.75
2019-03-06T15:09:32.462Z,99368.44
2019-03-06T15:12:08.789Z,99358.64
2019-03-06T15:14:41.403Z,99356.56
2019-03-06T15:17:14.322Z,99356.45
2019-03-06T15:19:44.612Z,99356.36
2019-03-06T15:25:48.520Z,99346.16
2019-03-06T15:29:09.122Z,99348.64
2019-03-06T15:31:51.661Z,99338.14
2019-03-06T15:34:29.049Z,99337.53
2019-03-06T15:43:46.495Z,99341.13
2019-03-06T15:46:18.162Z,99331.40
2019-03-06T15:48:50.652Z,99337.30
2019-03-06T15:51:24.820Z,99326.34
2019-03-06T15:53:57.201Z,99322.28
2019-03-06T15:56:31.797Z,99316.11
2019-03-06T15:59:04.870Z,99320.15
2019-03-06T16:01:46.722Z,99317.27
2019-03-06T16:04:18.693Z,99313.59
2019-03-06T16:06:59.496Z,99311.28
2019-03-06T16:09:43.968Z,99310.25
2019-03-06T16:12:27.417Z,99305.09
2019-03-06T16:15:31.561Z,99303.36
2019-03-06T16:18:39.820Z,99301.65
2019-03-06T16:24:53.899Z,99300.19
2019-03-06T16:28:42.789Z,99301.91
2019-03-06T16:31:18.976Z,99307.44
2019-03-06T16:34:40.901Z,99298.61
2019-03-06T16:37:14.689Z,99300.61
2019-03-06T16:40:17.314Z,99293.34
2019-03-06T16:42:53.636Z,99292.95
2019-03-06T16:45:27.016Z,99300.16
2019-03-06T16:47:57.961Z,99290.45
2019-03-06T16:50:52.994Z,99284.34
2019-03-06T17:02:47.623Z,99271.66
2019-03-06T17:05:46.403Z,99274.27
2019-03-06T17:08:19.551Z,99276.75
2019-03-06T17:11:27.194Z,99267.08
2019-03-06T17:13:58.875Z,99267.18
2019-03-06T17:16:31.038Z,99265.76
2019-03-06T17:19:21.417Z,99264.67
2019-03-06T17:22:36.420Z,99276.64
2019-03-06T17:25:14.945Z,99270.20
2019-03-06T17:28:33.194Z,99267.20
2019-03-06T17:31:33.437Z,99262.00
2019-03-06T17:34:31.325Z,99258.98
2019-03-06T17:37:28.259Z,99251.83
2019-03-06T17:43:02.637Z,99271.66
2019-03-06T17:46:04.036Z,99267.30
2019-03-06T17:48:54.296Z,99268.19
2019-03-06T17:52:02.845Z,99270.48
2019-03-06T17:55:01.028Z,99276.20
2019-03-06T17:57:49.867Z,99270.76
2019-03-06T18:00:36.714Z,99261.33
2019-03-06T18:03:33.338Z,99266.48
2019-03-06T18:06:09.961Z,99254.26
2019-03-06T18:08:55.338Z,99252.80
2019-03-06T18:11:38.391Z,99242.64
2019-03-06T18:14:50.481Z,99236.93
2019-03-06T18:17:34.321Z,99232.66
2019-03-06T18:20:15.005Z,99225.70
2019-03-06T18:23:29.122Z,99232.78
2019-03-06T18:26:33.149Z,99236.08
2019-03-06T18:32:36.075Z,99228.78
2019-03-06T18:38:07.012Z,99229.77
2019-03-06T18:41:19.205Z,99221.55
2019-03-06T18:44:02.184Z,99227.32
2019-03-06T18:46:49.613Z,99222.84
2019-03-06T18:49:33.091Z,99219.58
2019-03-06T18:52:06.565Z,99217.95
2019-03-06T18:54:47.829Z,99212.53
2019-03-06T18:57:31.921Z,99211.73
2019-03-06T19:00:18.467Z,99209.87
2019-03-06T19:03:12.419Z,99198.05
2019-03-06T19:06:09.216Z,99203.19
2019-03-06T19:08:52.786Z,99201.41
2019-03-06T19:11:27.724Z,99211.22
2019-03-06T19:15:00.778Z,99201.88
2019-03-06T19:17:56.853Z,99195.98
2019-03-06T19:20:51.248Z,99201.00
2019-03-06T19:24:08.771Z,99192.80
2019-03-06T19:26:44.737Z,99188.11
2019-03-06T19:33:05.755Z,99175.79
2019-03-06T19:35:39.584Z,99182.98
2019-03-06T19:38:16.665Z,99166.90
2019-03-06T19:40:53.235Z,99163.05
2019-03-06T19:43:39.104Z,99158.89
2019-03-06T19:46:14.467Z,99164.93
2019-03-06T19:49:06.686Z,99161.59
2019-03-06T19:55:03.902Z,99159.55
2019-03-06T20:02:06.106Z,99140.66
2019-03-06T20:04:53.589Z,99135.66
2019-03-06T20:07:30.112Z,99134.22
2019-03-06T20:10:07.957Z,99130.78
2019-03-06T20:12:42.911Z,99139.09
2019-03-06T20:15:25.852Z,99129.98
2019-03-06T20:18:02.717Z,99123.20
2019-03-06T20:20:40.205Z,99115.73
2019-03-06T20:23:15.064Z,99121.09
2019-03-06T20:25:52.015Z,99123.41
2019-03-06T20:28:27.417Z,99115.28
2019-03-06T20:31:02.508Z,99116.22
2019-03-06T20:33:41.127Z,99128.70
2019-03-06T20:36:18.416Z,99127.20
2019-03-06T20:38:51.841Z,99126.73
2019-03-06T20:41:26.858Z,99126.08
2019-03-06T20:43:59.139Z,99121.78
2019-03-06T20:46:33.720Z,99115.81
2019-03-06T20:49:12.855Z,99113.81
2019-03-06T20:51:55.160Z,99117.45
2019-03-06T20:54:28.759Z,99107.89
2019-03-06T20:56:59.916Z,99114.53
2019-03-06T20:59:40.208Z,99102.72
2019-03-06T21:02:21.124Z,99120.39
2019-03-06T21:04:57.982Z,99108.19
2019-03-06T21:07:44.933Z,99105.72
2019-03-06T21:10:14.132Z,99105.67
2019-03-06T21:12:45.311Z,99103.05
2019-03-06T21:15:20.673Z,99095.98
2019-03-06T21:18:33.612Z,99099.76
2019-03-06T21:21:53.305Z,99099.14
2019-03-06T21:28:26.455Z,99096.90
2019-03-06T21:31:26.623Z,99096.84
2019-03-06T21:34:04.193Z,99092.33
2019-03-06T21:40:36.022Z,99080.06
2019-03-06T21:43:19.716Z,99075.77
2019-03-06T21:49:49.932Z,99086.43
2019-03-06T21:52:49.237Z,99083.83
2019-03-06T21:55:38.552Z,99079.96
2019-03-06T21:58:29.530Z,99071.59
2019-03-06T22:04:22.627Z,99075.12
2019-03-06T22:07:00.061Z,99065.23
2019-03-06T22:12:51.642Z,99068.06
2019-03-06T22:15:35.587Z,99062.49
2019-03-06T22:18:25.135Z,99059.88
2019-03-06T22:21:19.021Z,99061.73
2019-03-06T22:23:56.236Z,99056.92
2019-03-06T22:39:14.986Z,99042.91
2019-03-06T22:53:38.922Z,99012.80
2019-03-06T22:56:49.968Z,98999.73
2019-03-06T22:59:51.903Z,99002.04
2019-03-06T23:05:58.166Z,98999.19
2019-03-06T23:16:46.859Z,98974.60
2019-03-06T23:19:52.548Z,98974.33
2019-03-06T23:22:36.916Z,98972.94
2019-03-06T23:29:26.455Z,98964.10
2019-03-06T23:44:52.691Z,98917.88
2019-03-06T23:48:07.559Z,98921.30
2019-03-06T23:50:52.142Z,98907.83
2019-03-06T23:53:45.805Z,98897.97
2019-03-06T23:56:59.436Z,98897.77
2019-03-06T23:59:37.646Z,98892.61
